sensor_id;sensor_type;location;lat;lon;timestamp;temperature;humidity
1680;DHT22;838;51.794;12.258;2022-08-21T00:00:40;20.20;91.70
1680;DHT22;838;51.794;12.258;2022-08-21T00:03:07;20.00;91.60
1680;DHT22;838;51.794;12.258;2022-08-21T00:05:37;19.90;92.20
1680;DHT22;838;51.794;12.258;2022-08-21T00:08:04;19.80;93.00
1680;DHT22;838;51.794;12.258;2022-08-21T00:10:31;19.70;93.70
1680;DHT22;838;51.794;12.258;2022-08-21T00:13:01;19.70;93.90
1680;DHT22;838;51.794;12.258;2022-08-21T00:15:30;19.70;93.90
1680;DHT22;838;51.794;12.258;2022-08-21T00:17:56;19.70;94.00
1680;DHT22;838;51.794;12.258;2022-08-21T00:20:23;19.70;93.60
1680;DHT22;838;51.794;12.258;2022-08-21T00:22:49;19.60;93.50
1680;DHT22;838;51.794;12.258;2022-08-21T00:25:16;19.40;93.80
1680;DHT22;838;51.794;12.258;2022-08-21T00:27:42;19.40;94.50
1680;DHT22;838;51.794;12.258;2022-08-21T00:30:10;19.20;94.90
1680;DHT22;838;51.794;12.258;2022-08-21T00:32:38;19.10;95.00
1680;DHT22;838;51.794;12.258;2022-08-21T00:35:06;19.10;95.10
1680;DHT22;838;51.794;12.258;2022-08-21T00:37:32;19.10;94.80
1680;DHT22;838;51.794;12.258;2022-08-21T00:39:58;19.10;95.10
1680;DHT22;838;51.794;12.258;2022-08-21T00:42:23;19.10;94.60
1680;DHT22;838;51.794;12.258;2022-08-21T00:44:49;19.10;94.30
1680;DHT22;838;51.794;12.258;2022-08-21T00:47:18;19.20;94.40
1680;DHT22;838;51.794;12.258;2022-08-21T00:49:45;19.10;93.80
1680;DHT22;838;51.794;12.258;2022-08-21T00:52:15;19.20;93.80
1680;DHT22;838;51.794;12.258;2022-08-21T00:54:43;19.30;93.40
1680;DHT22;838;51.794;12.258;2022-08-21T00:57:15;19.30;93.50
1680;DHT22;838;51.794;12.258;2022-08-21T00:59:43;19.20;92.80
1680;DHT22;838;51.794;12.258;2022-08-21T01:02:10;19.30;92.70
1680;DHT22;838;51.794;12.258;2022-08-21T01:04:37;19.30;91.80
1680;DHT22;838;51.794;12.258;2022-08-21T01:07:03;19.30;91.90
1680;DHT22;838;51.794;12.258;2022-08-21T01:09:29;19.30;91.20
1680;DHT22;838;51.794;12.258;2022-08-21T01:11:55;19.20;90.80
1680;DHT22;838;51.794;12.258;2022-08-21T01:14:21;19.20;90.60
1680;DHT22;838;51.794;12.258;2022-08-21T01:16:50;19.30;90.40
1680;DHT22;838;51.794;12.258;2022-08-21T01:19:16;19.40;89.10
1680;DHT22;838;51.794;12.258;2022-08-21T01:21:43;19.40;88.20
1680;DHT22;838;51.794;12.258;2022-08-21T01:24:09;19.40;86.00
1680;DHT22;838;51.794;12.258;2022-08-21T01:26:35;19.30;87.10
1680;DHT22;838;51.794;12.258;2022-08-21T01:31:59;19.30;86.60
1680;DHT22;838;51.794;12.258;2022-08-21T01:34:28;19.50;85.70
1680;DHT22;838;51.794;12.258;2022-08-21T01:36:54;19.50;84.40
1680;DHT22;838;51.794;12.258;2022-08-21T01:39:20;19.70;82.30
1680;DHT22;838;51.794;12.258;2022-08-21T01:41:45;19.80;77.90
1680;DHT22;838;51.794;12.258;2022-08-21T01:44:11;20.10;76.60
1680;DHT22;838;51.794;12.258;2022-08-21T01:46:37;20.30;75.00
1680;DHT22;838;51.794;12.258;2022-08-21T01:49:04;20.00;77.40
1680;DHT22;838;51.794;12.258;2022-08-21T01:51:30;20.10;75.50
1680;DHT22;838;51.794;12.258;2022-08-21T01:53:56;20.00;74.60
1680;DHT22;838;51.794;12.258;2022-08-21T01:56:21;19.90;76.40
1680;DHT22;838;51.794;12.258;2022-08-21T01:58:48;19.90;75.70
1680;DHT22;838;51.794;12.258;2022-08-21T02:01:14;19.80;76.30
1680;DHT22;838;51.794;12.258;2022-08-21T02:03:40;19.80;76.00
1680;DHT22;838;51.794;12.258;2022-08-21T02:06:07;19.70;76.60
1680;DHT22;838;51.794;12.258;2022-08-21T02:08:37;19.70;77.30
1680;DHT22;838;51.794;12.258;2022-08-21T02:11:03;19.70;74.80
1680;DHT22;838;51.794;12.258;2022-08-21T02:13:29;19.80;74.50
1680;DHT22;838;51.794;12.258;2022-08-21T02:15:55;19.90;73.60
1680;DHT22;838;51.794;12.258;2022-08-21T02:18:20;19.90;72.20
1680;DHT22;838;51.794;12.258;2022-08-21T02:20:48;20.00;70.60
1680;DHT22;838;51.794;12.258;2022-08-21T02:23:15;19.90;71.10
1680;DHT22;838;51.794;12.258;2022-08-21T02:25:41;19.80;74.50
1680;DHT22;838;51.794;12.258;2022-08-21T02:28:11;19.80;73.50
1680;DHT22;838;51.794;12.258;2022-08-21T02:30:40;19.60;74.70
1680;DHT22;838;51.794;12.258;2022-08-21T02:33:07;19.60;74.80
1680;DHT22;838;51.794;12.258;2022-08-21T02:35:33;19.50;75.40
1680;DHT22;838;51.794;12.258;2022-08-21T02:38:02;19.40;75.70
1680;DHT22;838;51.794;12.258;2022-08-21T02:40:32;19.40;77.30
1680;DHT22;838;51.794;12.258;2022-08-21T02:42:59;19.40;76.10
1680;DHT22;838;51.794;12.258;2022-08-21T02:45:25;19.60;74.40
1680;DHT22;838;51.794;12.258;2022-08-21T02:48:00;19.60;73.30
1680;DHT22;838;51.794;12.258;2022-08-21T02:50:29;19.30;72.80
1680;DHT22;838;51.794;12.258;2022-08-21T02:52:55;19.50;72.70
1680;DHT22;838;51.794;12.258;2022-08-21T02:55:27;19.50;73.40
1680;DHT22;838;51.794;12.258;2022-08-21T02:57:55;19.40;75.50
1680;DHT22;838;51.794;12.258;2022-08-21T03:00:23;19.30;75.70
1680;DHT22;838;51.794;12.258;2022-08-21T03:02:49;19.20;75.50
1680;DHT22;838;51.794;12.258;2022-08-21T03:05:15;19.00;79.20
1680;DHT22;838;51.794;12.258;2022-08-21T03:07:43;18.90;80.60
1680;DHT22;838;51.794;12.258;2022-08-21T03:10:10;19.00;77.80
1680;DHT22;838;51.794;12.258;2022-08-21T03:12:36;18.90;79.00
1680;DHT22;838;51.794;12.258;2022-08-21T03:15:08;18.90;80.10
1680;DHT22;838;51.794;12.258;2022-08-21T03:17:34;19.20;76.60
1680;DHT22;838;51.794;12.258;2022-08-21T03:20:00;19.30;74.00
1680;DHT22;838;51.794;12.258;2022-08-21T03:22:27;19.50;71.60
1680;DHT22;838;51.794;12.258;2022-08-21T03:24:52;19.60;70.50
1680;DHT22;838;51.794;12.258;2022-08-21T03:27:19;19.70;69.20
1680;DHT22;838;51.794;12.258;2022-08-21T03:29:48;19.50;71.00
1680;DHT22;838;51.794;12.258;2022-08-21T03:32:13;19.10;74.90
1680;DHT22;838;51.794;12.258;2022-08-21T03:34:39;18.90;78.90
1680;DHT22;838;51.794;12.258;2022-08-21T03:37:06;18.90;79.20
1680;DHT22;838;51.794;12.258;2022-08-21T03:39:32;19.00;76.00
1680;DHT22;838;51.794;12.258;2022-08-21T03:41:58;19.20;75.70
1680;DHT22;838;51.794;12.258;2022-08-21T03:44:25;19.40;73.40
1680;DHT22;838;51.794;12.258;2022-08-21T03:46:53;19.60;70.60
1680;DHT22;838;51.794;12.258;2022-08-21T03:49:19;19.50;70.20
1680;DHT22;838;51.794;12.258;2022-08-21T03:51:44;19.50;70.30
1680;DHT22;838;51.794;12.258;2022-08-21T03:54:10;19.50;69.50
1680;DHT22;838;51.794;12.258;2022-08-21T03:56:35;19.50;70.40
1680;DHT22;838;51.794;12.258;2022-08-21T03:59:01;19.40;71.30
1680;DHT22;838;51.794;12.258;2022-08-21T04:01:29;19.40;70.90
1680;DHT22;838;51.794;12.258;2022-08-21T04:03:54;19.50;69.30
1680;DHT22;838;51.794;12.258;2022-08-21T04:06:20;19.60;68.00
1680;DHT22;838;51.794;12.258;2022-08-21T04:08:46;19.60;67.10
1680;DHT22;838;51.794;12.258;2022-08-21T04:11:11;19.50;67.90
1680;DHT22;838;51.794;12.258;2022-08-21T04:13:38;19.30;68.70
1680;DHT22;838;51.794;12.258;2022-08-21T04:16:04;19.30;68.70
1680;DHT22;838;51.794;12.258;2022-08-21T04:18:30;19.30;68.50
1680;DHT22;838;51.794;12.258;2022-08-21T04:20:57;19.40;68.70
1680;DHT22;838;51.794;12.258;2022-08-21T04:23:24;19.50;68.20
1680;DHT22;838;51.794;12.258;2022-08-21T04:25:51;19.40;68.10
1680;DHT22;838;51.794;12.258;2022-08-21T04:28:17;19.50;65.50
1680;DHT22;838;51.794;12.258;2022-08-21T04:30:43;19.50;65.70
1680;DHT22;838;51.794;12.258;2022-08-21T04:33:09;19.40;69.80
1680;DHT22;838;51.794;12.258;2022-08-21T04:35:35;19.40;68.20
1680;DHT22;838;51.794;12.258;2022-08-21T04:38:01;19.40;69.10
1680;DHT22;838;51.794;12.258;2022-08-21T04:40:28;19.20;71.70
1680;DHT22;838;51.794;12.258;2022-08-21T04:43:00;18.90;76.40
1680;DHT22;838;51.794;12.258;2022-08-21T04:45:32;18.60;79.00
1680;DHT22;838;51.794;12.258;2022-08-21T04:48:01;18.50;79.70
1680;DHT22;838;51.794;12.258;2022-08-21T04:50:41;18.70;79.10
1680;DHT22;838;51.794;12.258;2022-08-21T04:53:12;18.80;76.30
1680;DHT22;838;51.794;12.258;2022-08-21T04:55:40;18.70;80.00
1680;DHT22;838;51.794;12.258;2022-08-21T04:58:09;18.60;79.50
1680;DHT22;838;51.794;12.258;2022-08-21T05:00:36;18.60;80.50
1680;DHT22;838;51.794;12.258;2022-08-21T05:03:03;18.80;78.00
1680;DHT22;838;51.794;12.258;2022-08-21T05:05:30;18.90;77.30
1680;DHT22;838;51.794;12.258;2022-08-21T05:07:57;19.00;75.80
1680;DHT22;838;51.794;12.258;2022-08-21T05:10:24;19.10;74.40
1680;DHT22;838;51.794;12.258;2022-08-21T05:12:50;19.20;73.00
1680;DHT22;838;51.794;12.258;2022-08-21T05:15:16;19.30;73.20
1680;DHT22;838;51.794;12.258;2022-08-21T05:17:42;19.10;74.50
1680;DHT22;838;51.794;12.258;2022-08-21T05:20:10;19.30;73.40
1680;DHT22;838;51.794;12.258;2022-08-21T05:22:36;19.40;71.50
1680;DHT22;838;51.794;12.258;2022-08-21T05:25:02;19.30;74.00
1680;DHT22;838;51.794;12.258;2022-08-21T05:27:28;19.20;75.50
1680;DHT22;838;51.794;12.258;2022-08-21T05:29:56;19.20;77.20
1680;DHT22;838;51.794;12.258;2022-08-21T05:32:23;19.40;72.50
1680;DHT22;838;51.794;12.258;2022-08-21T05:34:49;19.50;70.60
1680;DHT22;838;51.794;12.258;2022-08-21T05:37:16;19.40;73.40
1680;DHT22;838;51.794;12.258;2022-08-21T05:39:41;19.40;72.40
1680;DHT22;838;51.794;12.258;2022-08-21T05:42:08;19.40;73.30
1680;DHT22;838;51.794;12.258;2022-08-21T05:44:33;19.50;71.50
1680;DHT22;838;51.794;12.258;2022-08-21T05:47:08;19.60;71.30
1680;DHT22;838;51.794;12.258;2022-08-21T05:49:34;19.60;72.50
1680;DHT22;838;51.794;12.258;2022-08-21T05:52:01;19.60;69.70
1680;DHT22;838;51.794;12.258;2022-08-21T05:54:27;19.50;69.70
1680;DHT22;838;51.794;12.258;2022-08-21T05:56:53;19.40;72.20
1680;DHT22;838;51.794;12.258;2022-08-21T05:59:20;19.50;71.60
1680;DHT22;838;51.794;12.258;2022-08-21T06:01:46;19.70;70.00
1680;DHT22;838;51.794;12.258;2022-08-21T06:04:12;19.90;68.00
1680;DHT22;838;51.794;12.258;2022-08-21T06:06:38;20.00;65.90
1680;DHT22;838;51.794;12.258;2022-08-21T06:09:05;19.80;67.40
1680;DHT22;838;51.794;12.258;2022-08-21T06:11:32;19.80;66.70
1680;DHT22;838;51.794;12.258;2022-08-21T06:13:58;19.70;68.60
1680;DHT22;838;51.794;12.258;2022-08-21T06:16:25;19.80;68.70
1680;DHT22;838;51.794;12.258;2022-08-21T06:18:52;19.80;67.70
1680;DHT22;838;51.794;12.258;2022-08-21T06:21:18;19.90;66.00
1680;DHT22;838;51.794;12.258;2022-08-21T06:23:44;19.90;67.70
1680;DHT22;838;51.794;12.258;2022-08-21T06:26:11;20.10;65.40
1680;DHT22;838;51.794;12.258;2022-08-21T06:28:38;20.20;62.70
1680;DHT22;838;51.794;12.258;2022-08-21T06:31:21;20.20;63.40
1680;DHT22;838;51.794;12.258;2022-08-21T06:33:47;20.30;58.80
1680;DHT22;838;51.794;12.258;2022-08-21T06:36:13;20.30;59.40
1680;DHT22;838;51.794;12.258;2022-08-21T06:38:39;20.40;56.80
1680;DHT22;838;51.794;12.258;2022-08-21T06:41:05;20.40;60.20
1680;DHT22;838;51.794;12.258;2022-08-21T06:43:32;20.70;58.80
1680;DHT22;838;51.794;12.258;2022-08-21T06:45:58;20.60;56.00
1680;DHT22;838;51.794;12.258;2022-08-21T06:48:24;20.80;55.20
1680;DHT22;838;51.794;12.258;2022-08-21T06:50:49;20.90;53.50
1680;DHT22;838;51.794;12.258;2022-08-21T06:53:18;20.90;49.10
1680;DHT22;838;51.794;12.258;2022-08-21T06:55:45;20.40;53.90
1680;DHT22;838;51.794;12.258;2022-08-21T06:58:11;20.30;56.20
1680;DHT22;838;51.794;12.258;2022-08-21T07:00:48;20.20;58.20
1680;DHT22;838;51.794;12.258;2022-08-21T07:03:25;20.30;57.90
1680;DHT22;838;51.794;12.258;2022-08-21T07:05:52;20.50;57.00
1680;DHT22;838;51.794;12.258;2022-08-21T07:08:17;20.50;52.50
1680;DHT22;838;51.794;12.258;2022-08-21T07:10:44;20.20;49.40
1680;DHT22;838;51.794;12.258;2022-08-21T07:13:10;20.20;52.70
1680;DHT22;838;51.794;12.258;2022-08-21T07:15:35;20.10;53.40
1680;DHT22;838;51.794;12.258;2022-08-21T07:18:01;20.40;49.00
1680;DHT22;838;51.794;12.258;2022-08-21T07:20:28;20.50;48.70
1680;DHT22;838;51.794;12.258;2022-08-21T07:22:55;20.80;47.40
1680;DHT22;838;51.794;12.258;2022-08-21T07:25:22;21.00;43.40
1680;DHT22;838;51.794;12.258;2022-08-21T07:27:47;21.00;40.80
1680;DHT22;838;51.794;12.258;2022-08-21T07:30:14;21.00;42.40
1680;DHT22;838;51.794;12.258;2022-08-21T07:32:40;20.90;44.00
1680;DHT22;838;51.794;12.258;2022-08-21T07:35:06;20.80;44.50
1680;DHT22;838;51.794;12.258;2022-08-21T07:37:33;20.90;46.00
1680;DHT22;838;51.794;12.258;2022-08-21T07:39:59;20.70;45.20
1680;DHT22;838;51.794;12.258;2022-08-21T07:42:24;20.70;44.90
1680;DHT22;838;51.794;12.258;2022-08-21T07:44:50;20.90;42.80
1680;DHT22;838;51.794;12.258;2022-08-21T07:47:16;20.90;44.40
1680;DHT22;838;51.794;12.258;2022-08-21T07:49:42;21.10;42.10
1680;DHT22;838;51.794;12.258;2022-08-21T07:52:07;21.20;38.50
1680;DHT22;838;51.794;12.258;2022-08-21T07:54:33;21.40;40.50
1680;DHT22;838;51.794;12.258;2022-08-21T07:56:59;21.50;37.40
1680;DHT22;838;51.794;12.258;2022-08-21T07:59:25;21.90;35.20
1680;DHT22;838;51.794;12.258;2022-08-21T08:01:50;22.00;33.30
1680;DHT22;838;51.794;12.258;2022-08-21T08:04:16;22.20;31.70
1680;DHT22;838;51.794;12.258;2022-08-21T08:06:42;22.40;29.30
1680;DHT22;838;51.794;12.258;2022-08-21T08:09:07;22.60;29.60
1680;DHT22;838;51.794;12.258;2022-08-21T08:11:33;22.90;27.40
1680;DHT22;838;51.794;12.258;2022-08-21T08:14:00;23.00;27.90
1680;DHT22;838;51.794;12.258;2022-08-21T08:16:29;23.00;27.30
1680;DHT22;838;51.794;12.258;2022-08-21T08:18:55;22.60;25.30
1680;DHT22;838;51.794;12.258;2022-08-21T08:21:21;22.80;26.10
1680;DHT22;838;51.794;12.258;2022-08-21T08:23:47;22.90;28.00
1680;DHT22;838;51.794;12.258;2022-08-21T08:26:16;23.10;27.50
1680;DHT22;838;51.794;12.258;2022-08-21T08:28:47;23.00;26.80
1680;DHT22;838;51.794;12.258;2022-08-21T08:31:14;22.90;19.60
1680;DHT22;838;51.794;12.258;2022-08-21T08:33:39;22.80;26.10
1680;DHT22;838;51.794;12.258;2022-08-21T08:36:11;23.10;18.40
1680;DHT22;838;51.794;12.258;2022-08-21T08:38:37;23.00;17.90
1680;DHT22;838;51.794;12.258;2022-08-21T08:41:14;23.30;15.60
1680;DHT22;838;51.794;12.258;2022-08-21T08:43:44;23.70;17.40
1680;DHT22;838;51.794;12.258;2022-08-21T08:46:16;23.80;14.50
1680;DHT22;838;51.794;12.258;2022-08-21T08:48:55;24.10;6.20
1680;DHT22;838;51.794;12.258;2022-08-21T08:51:51;24.20;4.20
1680;DHT22;838;51.794;12.258;2022-08-21T08:54:31;25.20;1.00
1680;DHT22;838;51.794;12.258;2022-08-21T08:57:02;25.80;1.00
1680;DHT22;838;51.794;12.258;2022-08-21T08:59:39;26.80;1.00
1680;DHT22;838;51.794;12.258;2022-08-21T09:02:11;27.30;1.00
1680;DHT22;838;51.794;12.258;2022-08-21T09:04:37;27.60;1.00
1680;DHT22;838;51.794;12.258;2022-08-21T09:24:01;28.00;1.00
1680;DHT22;838;51.794;12.258;2022-08-21T09:26:43;28.00;1.00
1680;DHT22;838;51.794;12.258;2022-08-21T09:29:13;28.10;1.00
1680;DHT22;838;51.794;12.258;2022-08-21T09:31:43;26.90;1.00
1680;DHT22;838;51.794;12.258;2022-08-21T09:34:10;25.90;1.00
1680;DHT22;838;51.794;12.258;2022-08-21T09:36:49;25.80;1.00
1680;DHT22;838;51.794;12.258;2022-08-21T09:39:37;26.90;1.00
1680;DHT22;838;51.794;12.258;2022-08-21T09:42:05;27.60;1.00
1680;DHT22;838;51.794;12.258;2022-08-21T09:44:34;28.20;1.00
1680;DHT22;838;51.794;12.258;2022-08-21T09:47:05;28.90;1.00
1680;DHT22;838;51.794;12.258;2022-08-21T09:49:36;27.90;1.00
1680;DHT22;838;51.794;12.258;2022-08-21T09:52:05;27.10;1.00
1680;DHT22;838;51.794;12.258;2022-08-21T09:54:40;26.10;1.00
1680;DHT22;838;51.794;12.258;2022-08-21T09:57:15;25.90;1.00
1680;DHT22;838;51.794;12.258;2022-08-21T10:00:31;25.70;1.00
1680;DHT22;838;51.794;12.258;2022-08-21T10:03:20;25.80;1.00
1680;DHT22;838;51.794;12.258;2022-08-21T10:08:23;26.40;1.00
1680;DHT22;838;51.794;12.258;2022-08-21T10:11:06;26.60;1.00
1680;DHT22;838;51.794;12.258;2022-08-21T10:13:57;26.70;1.00
1680;DHT22;838;51.794;12.258;2022-08-21T10:25:21;24.90;1.00
1680;DHT22;838;51.794;12.258;2022-08-21T10:30:46;24.90;1.00
1680;DHT22;838;51.794;12.258;2022-08-21T10:41:55;25.50;1.00
1680;DHT22;838;51.794;12.258;2022-08-21T10:45:32;25.40;1.00
1680;DHT22;838;51.794;12.258;2022-08-21T10:47:40;25.40;1.00
1680;DHT22;838;51.794;12.258;2022-08-21T10:55:25;25.50;1.00
1680;DHT22;838;51.794;12.258;2022-08-21T10:58:11;25.80;1.00
1680;DHT22;838;51.794;12.258;2022-08-21T11:00:49;25.80;1.00
1680;DHT22;838;51.794;12.258;2022-08-21T11:03:49;25.80;1.00
1680;DHT22;838;51.794;12.258;2022-08-21T11:06:23;26.00;1.00
1680;DHT22;838;51.794;12.258;2022-08-21T11:09:05;26.40;1.00
1680;DHT22;838;51.794;12.258;2022-08-21T11:11:42;26.70;1.00
1680;DHT22;838;51.794;12.258;2022-08-21T11:14:51;26.70;1.00
1680;DHT22;838;51.794;12.258;2022-08-21T11:17:34;26.90;1.00
1680;DHT22;838;51.794;12.258;2022-08-21T11:23:11;26.50;1.00
1680;DHT22;838;51.794;12.258;2022-08-21T11:25:41;26.50;1.00
1680;DHT22;838;51.794;12.258;2022-08-21T11:28:17;26.60;1.00
1680;DHT22;838;51.794;12.258;2022-08-21T11:34:07;26.00;1.00
1680;DHT22;838;51.794;12.258;2022-08-21T11:42:24;26.70;1.00
1680;DHT22;838;51.794;12.258;2022-08-21T11:50:20;27.00;1.00
1680;DHT22;838;51.794;12.258;2022-08-21T11:53:30;26.90;1.00
1680;DHT22;838;51.794;12.258;2022-08-21T11:58:25;26.70;1.00
1680;DHT22;838;51.794;12.258;2022-08-21T12:01:09;26.60;1.00
1680;DHT22;838;51.794;12.258;2022-08-21T12:03:50;26.00;1.00
1680;DHT22;838;51.794;12.258;2022-08-21T12:06:33;25.50;1.00
1680;DHT22;838;51.794;12.258;2022-08-21T12:09:26;25.60;1.00
1680;DHT22;838;51.794;12.258;2022-08-21T12:12:25;25.80;1.00
1680;DHT22;838;51.794;12.258;2022-08-21T12:17:40;26.10;1.00
1680;DHT22;838;51.794;12.258;2022-08-21T12:20:41;26.20;1.00
1680;DHT22;838;51.794;12.258;2022-08-21T12:26:13;26.10;1.00
1680;DHT22;838;51.794;12.258;2022-08-21T12:28:42;26.10;1.00
1680;DHT22;838;51.794;12.258;2022-08-21T12:31:25;26.30;1.00
1680;DHT22;838;51.794;12.258;2022-08-21T12:33:58;26.10;1.00
1680;DHT22;838;51.794;12.258;2022-08-21T12:36:56;26.00;1.00
1680;DHT22;838;51.794;12.258;2022-08-21T12:39:26;26.40;1.00
1680;DHT22;838;51.794;12.258;2022-08-21T12:44:38;26.60;1.00
1680;DHT22;838;51.794;12.258;2022-08-21T12:47:29;26.70;1.00
1680;DHT22;838;51.794;12.258;2022-08-21T12:50:09;27.10;1.00
1680;DHT22;838;51.794;12.258;2022-08-21T12:52:57;27.20;1.00
1680;DHT22;838;51.794;12.258;2022-08-21T12:55:31;26.80;1.00
1680;DHT22;838;51.794;12.258;2022-08-21T12:57:57;27.00;1.00
1680;DHT22;838;51.794;12.258;2022-08-21T13:00:27;27.30;1.00
1680;DHT22;838;51.794;12.258;2022-08-21T13:02:54;27.60;1.00
1680;DHT22;838;51.794;12.258;2022-08-21T13:05:33;27.80;1.00
1680;DHT22;838;51.794;12.258;2022-08-21T13:08:04;28.10;1.00
1680;DHT22;838;51.794;12.258;2022-08-21T13:10:32;28.20;1.00
1680;DHT22;838;51.794;12.258;2022-08-21T13:13:00;28.70;1.00
1680;DHT22;838;51.794;12.258;2022-08-21T13:15:30;29.30;1.00
1680;DHT22;838;51.794;12.258;2022-08-21T13:17:56;29.60;1.00
1680;DHT22;838;51.794;12.258;2022-08-21T13:20:39;29.50;1.00
1680;DHT22;838;51.794;12.258;2022-08-21T13:23:20;29.40;1.00
1680;DHT22;838;51.794;12.258;2022-08-21T13:25:48;29.50;1.00
1680;DHT22;838;51.794;12.258;2022-08-21T13:28:13;29.10;1.00
1680;DHT22;838;51.794;12.258;2022-08-21T13:30:52;28.60;1.00
1680;DHT22;838;51.794;12.258;2022-08-21T13:33:24;28.60;1.00
1680;DHT22;838;51.794;12.258;2022-08-21T13:38:28;29.20;1.00
1680;DHT22;838;51.794;12.258;2022-08-21T13:43:33;29.60;1.00
1680;DHT22;838;51.794;12.258;2022-08-21T13:46:00;29.40;1.00
1680;DHT22;838;51.794;12.258;2022-08-21T13:48:29;29.10;1.00
1680;DHT22;838;51.794;12.258;2022-08-21T13:50:56;28.80;1.00
1680;DHT22;838;51.794;12.258;2022-08-21T13:53:31;28.60;1.00
1680;DHT22;838;51.794;12.258;2022-08-21T13:55:58;28.00;1.00
1680;DHT22;838;51.794;12.258;2022-08-21T13:58:44;27.80;1.00
1680;DHT22;838;51.794;12.258;2022-08-21T14:01:29;28.00;1.00
1680;DHT22;838;51.794;12.258;2022-08-21T14:04:20;28.10;1.00
1680;DHT22;838;51.794;12.258;2022-08-21T14:06:47;28.50;1.00
1680;DHT22;838;51.794;12.258;2022-08-21T14:09:34;28.80;1.00
1680;DHT22;838;51.794;12.258;2022-08-21T14:12:17;29.30;1.00
1680;DHT22;838;51.794;12.258;2022-08-21T14:14:45;29.70;1.00
1680;DHT22;838;51.794;12.258;2022-08-21T14:17:24;30.10;1.00
1680;DHT22;838;51.794;12.258;2022-08-21T14:19:52;29.70;1.00
1680;DHT22;838;51.794;12.258;2022-08-21T14:25:15;29.20;1.00
1680;DHT22;838;51.794;12.258;2022-08-21T14:27:53;29.00;1.00
1680;DHT22;838;51.794;12.258;2022-08-21T14:30:32;28.90;1.00
1680;DHT22;838;51.794;12.258;2022-08-21T14:32:59;29.00;1.00
1680;DHT22;838;51.794;12.258;2022-08-21T14:35:25;28.80;1.00
1680;DHT22;838;51.794;12.258;2022-08-21T14:37:53;28.90;1.00
1680;DHT22;838;51.794;12.258;2022-08-21T14:40:21;29.10;1.00
1680;DHT22;838;51.794;12.258;2022-08-21T14:42:47;29.30;1.00
1680;DHT22;838;51.794;12.258;2022-08-21T14:45:26;29.70;1.00
1680;DHT22;838;51.794;12.258;2022-08-21T14:47:52;29.70;1.00
1680;DHT22;838;51.794;12.258;2022-08-21T14:50:18;29.60;1.00
1680;DHT22;838;51.794;12.258;2022-08-21T14:52:44;29.70;1.00
1680;DHT22;838;51.794;12.258;2022-08-21T14:55:11;29.40;1.00
1680;DHT22;838;51.794;12.258;2022-08-21T14:57:40;29.40;1.00
1680;DHT22;838;51.794;12.258;2022-08-21T15:00:10;29.30;1.00
1680;DHT22;838;51.794;12.258;2022-08-21T15:02:36;29.10;1.00
1680;DHT22;838;51.794;12.258;2022-08-21T15:05:03;28.60;1.00
1680;DHT22;838;51.794;12.258;2022-08-21T15:07:29;28.80;1.00
1680;DHT22;838;51.794;12.258;2022-08-21T15:09:54;28.80;1.00
1680;DHT22;838;51.794;12.258;2022-08-21T15:12:20;29.00;1.00
1680;DHT22;838;51.794;12.258;2022-08-21T15:14:46;28.50;1.00
1680;DHT22;838;51.794;12.258;2022-08-21T15:17:12;28.60;1.00
1680;DHT22;838;51.794;12.258;2022-08-21T15:19:38;28.60;1.00
1680;DHT22;838;51.794;12.258;2022-08-21T15:22:05;28.40;1.00
1680;DHT22;838;51.794;12.258;2022-08-21T15:24:31;28.30;1.00
1680;DHT22;838;51.794;12.258;2022-08-21T15:27:00;27.70;1.00
1680;DHT22;838;51.794;12.258;2022-08-21T15:29:30;27.30;1.00
1680;DHT22;838;51.794;12.258;2022-08-21T15:32:02;27.20;1.00
1680;DHT22;838;51.794;12.258;2022-08-21T15:34:29;27.30;1.00
1680;DHT22;838;51.794;12.258;2022-08-21T15:36:56;27.30;1.00
1680;DHT22;838;51.794;12.258;2022-08-21T15:39:24;27.40;1.00
1680;DHT22;838;51.794;12.258;2022-08-21T15:41:50;27.30;1.00
1680;DHT22;838;51.794;12.258;2022-08-21T15:44:16;27.30;1.00
1680;DHT22;838;51.794;12.258;2022-08-21T15:46:42;27.30;1.00
1680;DHT22;838;51.794;12.258;2022-08-21T15:49:10;27.20;1.00
1680;DHT22;838;51.794;12.258;2022-08-21T15:51:36;27.00;1.00
1680;DHT22;838;51.794;12.258;2022-08-21T15:54:02;27.00;1.00
1680;DHT22;838;51.794;12.258;2022-08-21T15:56:39;27.10;1.00
1680;DHT22;838;51.794;12.258;2022-08-21T15:59:14;27.30;1.00
1680;DHT22;838;51.794;12.258;2022-08-21T16:01:41;27.40;1.00
1680;DHT22;838;51.794;12.258;2022-08-21T16:04:08;27.40;1.00
1680;DHT22;838;51.794;12.258;2022-08-21T16:06:34;27.30;1.00
1680;DHT22;838;51.794;12.258;2022-08-21T16:09:00;27.30;1.00
1680;DHT22;838;51.794;12.258;2022-08-21T16:11:27;27.50;1.00
1680;DHT22;838;51.794;12.258;2022-08-21T16:13:53;27.60;1.00
1680;DHT22;838;51.794;12.258;2022-08-21T16:16:21;27.70;1.00
1680;DHT22;838;51.794;12.258;2022-08-21T16:18:49;27.80;1.00
1680;DHT22;838;51.794;12.258;2022-08-21T16:21:15;27.90;1.00
1680;DHT22;838;51.794;12.258;2022-08-21T16:23:41;27.90;1.00
1680;DHT22;838;51.794;12.258;2022-08-21T16:26:08;28.00;1.00
1680;DHT22;838;51.794;12.258;2022-08-21T16:28:36;28.10;1.00
1680;DHT22;838;51.794;12.258;2022-08-21T16:31:03;28.10;1.00
1680;DHT22;838;51.794;12.258;2022-08-21T16:33:34;28.10;1.00
1680;DHT22;838;51.794;12.258;2022-08-21T16:36:00;28.10;1.00
1680;DHT22;838;51.794;12.258;2022-08-21T16:38:27;28.20;1.00
1680;DHT22;838;51.794;12.258;2022-08-21T16:40:53;28.30;1.00
1680;DHT22;838;51.794;12.258;2022-08-21T16:43:24;28.40;1.00
1680;DHT22;838;51.794;12.258;2022-08-21T16:45:50;28.30;1.00
1680;DHT22;838;51.794;12.258;2022-08-21T16:48:16;28.20;1.00
1680;DHT22;838;51.794;12.258;2022-08-21T16:50:42;28.20;1.00
1680;DHT22;838;51.794;12.258;2022-08-21T16:53:08;28.20;1.00
1680;DHT22;838;51.794;12.258;2022-08-21T16:55:35;28.20;1.00
1680;DHT22;838;51.794;12.258;2022-08-21T16:58:04;28.10;1.00
1680;DHT22;838;51.794;12.258;2022-08-21T17:00:31;28.10;1.00
1680;DHT22;838;51.794;12.258;2022-08-21T17:02:57;28.10;1.00
1680;DHT22;838;51.794;12.258;2022-08-21T17:05:23;28.00;1.00
1680;DHT22;838;51.794;12.258;2022-08-21T17:07:51;27.70;1.00
1680;DHT22;838;51.794;12.258;2022-08-21T17:10:20;27.30;1.00
1680;DHT22;838;51.794;12.258;2022-08-21T17:12:57;27.00;1.00
1680;DHT22;838;51.794;12.258;2022-08-21T17:15:27;26.80;1.00
1680;DHT22;838;51.794;12.258;2022-08-21T17:17:54;26.80;1.00
1680;DHT22;838;51.794;12.258;2022-08-21T17:20:21;27.00;1.00
1680;DHT22;838;51.794;12.258;2022-08-21T17:22:47;27.20;1.00
1680;DHT22;838;51.794;12.258;2022-08-21T17:25:13;27.40;1.00
1680;DHT22;838;51.794;12.258;2022-08-21T17:27:40;27.50;1.00
1680;DHT22;838;51.794;12.258;2022-08-21T17:30:10;27.50;1.00
1680;DHT22;838;51.794;12.258;2022-08-21T17:32:43;27.50;1.00
1680;DHT22;838;51.794;12.258;2022-08-21T17:35:11;27.20;1.00
1680;DHT22;838;51.794;12.258;2022-08-21T17:37:37;27.10;1.00
1680;DHT22;838;51.794;12.258;2022-08-21T17:40:05;27.00;1.00
1680;DHT22;838;51.794;12.258;2022-08-21T17:42:41;26.90;1.00
1680;DHT22;838;51.794;12.258;2022-08-21T17:45:19;26.80;1.00
1680;DHT22;838;51.794;12.258;2022-08-21T17:47:48;26.80;1.00
1680;DHT22;838;51.794;12.258;2022-08-21T17:50:15;26.80;1.00